createdAt,value
2017-10-05T00:02:16.279Z,3.67
2017-10-05T00:04:44.512Z,3.57
2017-10-05T00:07:13.524Z,5.90
2017-10-05T00:09:41.769Z,4.47
2017-10-05T00:12:10.784Z,4.50
2017-10-05T00:14:39.008Z,4.57
2017-10-05T00:17:07.252Z,4.00
2017-10-05T00:19:35.481Z,4.37
2017-10-05T00:22:03.741Z,4.97
2017-10-05T00:24:31.973Z,3.63
2017-10-05T00:27:00.224Z,4.00
2017-10-05T00:32:03.672Z,4.20
2017-10-05T00:34:31.935Z,2.93
2017-10-05T00:37:00.172Z,3.60
2017-10-05T00:39:28.404Z,3.90
2017-10-05T00:41:56.655Z,4.10
2017-10-05T00:44:24.875Z,3.10
2017-10-05T00:46:53.139Z,3.80
2017-10-05T00:49:21.369Z,3.13
2017-10-05T00:51:50.380Z,3.53
2017-10-05T00:54:18.619Z,4.80
2017-10-05T00:56:46.873Z,3.60
2017-10-05T00:59:15.116Z,3.20
2017-10-05T01:01:43.365Z,3.50
2017-10-05T01:04:12.355Z,4.10
2017-10-05T01:06:41.361Z,4.17
2017-10-05T01:09:09.691Z,3.23
2017-10-05T01:11:37.933Z,3.90
2017-10-05T01:14:06.181Z,4.60
2017-10-05T01:16:35.172Z,4.20
2017-10-05T01:19:04.188Z,4.97
2017-10-05T01:21:32.418Z,3.60
2017-10-05T01:24:00.668Z,4.23
2017-10-05T01:26:28.900Z,4.17
2017-10-05T01:28:57.922Z,4.20
2017-10-05T01:31:26.155Z,3.83
2017-10-05T01:33:55.172Z,3.80
2017-10-05T01:36:24.159Z,4.83
2017-10-05T01:38:52.404Z,4.10
2017-10-05T01:41:20.640Z,4.40
2017-10-05T01:43:48.886Z,3.63
2017-10-05T01:46:17.126Z,4.43
2017-10-05T01:48:45.365Z,4.57
2017-10-05T01:51:13.596Z,7.33
2017-10-05T01:53:42.616Z,6.60
2017-10-05T01:56:10.844Z,4.50
2017-10-05T01:58:39.098Z,5.60
2017-10-05T02:01:07.332Z,5.63
2017-10-05T02:03:35.586Z,6.33
2017-10-05T02:06:04.584Z,4.00
2017-10-05T02:08:33.593Z,4.37
2017-10-05T02:11:01.824Z,4.30
2017-10-05T02:13:30.081Z,4.47
2017-10-05T02:15:58.310Z,4.50
2017-10-05T02:18:27.345Z,3.53
2017-10-05T02:20:55.572Z,3.90
2017-10-05T02:23:24.576Z,6.00
2017-10-05T02:25:53.585Z,5.60
2017-10-05T02:30:55.397Z,5.30
2017-10-05T02:33:23.629Z,4.47
2017-10-05T02:35:51.893Z,4.17
2017-10-05T02:38:20.890Z,4.93
2017-10-05T02:40:49.913Z,4.13
2017-10-05T02:43:18.913Z,3.97
2017-10-05T02:45:47.160Z,4.73
2017-10-05T02:48:15.396Z,3.40
2017-10-05T02:50:43.651Z,4.67
2017-10-05T02:53:11.876Z,4.33
2017-10-05T02:55:40.893Z,4.00
2017-10-05T02:58:09.136Z,3.50
2017-10-05T03:00:37.388Z,5.60
2017-10-05T03:03:05.618Z,4.90
2017-10-05T03:05:33.865Z,5.33
2017-10-05T03:08:02.861Z,3.80
2017-10-05T03:10:31.877Z,4.03
2017-10-05T03:13:01.061Z,4.80
2017-10-05T03:15:30.072Z,4.90
2017-10-05T03:17:58.301Z,4.93
2017-10-05T03:20:26.545Z,5.27
2017-10-05T03:22:54.779Z,4.00
2017-10-05T03:25:23.798Z,4.63
2017-10-05T03:27:52.038Z,4.90
2017-10-05T03:30:20.281Z,5.53
2017-10-05T03:32:48.525Z,3.90
2017-10-05T03:35:16.784Z,4.80
2017-10-05T03:37:45.016Z,4.33
2017-10-05T03:40:13.253Z,4.50
2017-10-05T03:42:41.553Z,6.27
2017-10-05T03:45:09.777Z,5.37
2017-10-05T03:47:38.036Z,4.90
2017-10-05T03:50:06.284Z,5.10
2017-10-05T03:52:34.546Z,3.83
2017-10-05T03:55:03.331Z,4.23
2017-10-05T03:57:31.582Z,4.47
2017-10-05T03:59:59.821Z,4.10
2017-10-05T04:02:28.065Z,3.90
2017-10-05T04:04:57.069Z,5.50
2017-10-05T04:07:25.312Z,5.20
2017-10-05T04:09:53.548Z,4.47
2017-10-05T04:12:21.802Z,3.73
2017-10-05T04:14:50.064Z,4.00
2017-10-05T04:17:18.316Z,3.63
2017-10-05T04:19:46.565Z,5.03
2017-10-05T04:22:14.810Z,4.60
2017-10-05T04:24:43.045Z,3.97
2017-10-05T04:27:11.287Z,4.30
2017-10-05T04:29:39.529Z,3.80
2017-10-05T04:32:07.789Z,5.20
2017-10-05T04:34:36.029Z,6.70
2017-10-05T04:37:04.302Z,6.10
2017-10-05T04:39:33.304Z,5.40
2017-10-05T04:42:01.581Z,4.00
2017-10-05T04:44:29.820Z,4.10
2017-10-05T04:46:58.073Z,5.43
2017-10-05T04:49:26.349Z,5.20
2017-10-05T04:51:54.633Z,4.07
2017-10-05T04:54:22.896Z,4.60
2017-10-05T04:56:51.145Z,4.17
2017-10-05T04:59:19.397Z,4.30
2017-10-05T05:01:48.418Z,3.77
2017-10-05T05:04:16.665Z,4.80
2017-10-05T05:06:44.908Z,4.70
2017-10-05T05:09:13.169Z,3.73
2017-10-05T05:11:41.401Z,4.60
2017-10-05T05:14:09.656Z,4.27
2017-10-05T05:16:37.887Z,4.73
2017-10-05T05:19:06.129Z,4.50
2017-10-05T05:21:35.663Z,4.37
2017-10-05T05:24:03.940Z,3.63
2017-10-05T05:26:32.289Z,3.73
2017-10-05T05:29:00.743Z,3.47
2017-10-05T05:31:28.981Z,4.57
2017-10-05T05:33:57.229Z,5.27
2017-10-05T05:36:25.619Z,4.67
2017-10-05T05:38:53.860Z,4.00
2017-10-05T05:41:22.101Z,5.10
2017-10-05T05:43:50.369Z,4.17
2017-10-05T05:46:19.445Z,4.53
2017-10-05T05:48:47.696Z,4.50
2017-10-05T05:51:16.710Z,4.77
2017-10-05T05:53:44.961Z,4.40
2017-10-05T05:56:13.976Z,4.40
2017-10-05T05:58:42.220Z,6.20
2017-10-05T06:01:12.107Z,3.60
2017-10-05T06:03:40.337Z,4.30
2017-10-05T06:06:08.583Z,3.60
2017-10-05T06:08:37.601Z,4.33
2017-10-05T06:11:05.870Z,3.70
2017-10-05T06:13:34.098Z,3.07
2017-10-05T06:16:02.359Z,3.70
2017-10-05T06:18:30.613Z,3.20
2017-10-05T06:20:58.854Z,4.17
2017-10-05T06:23:27.089Z,4.20
2017-10-05T06:25:55.336Z,3.63
2017-10-05T06:28:23.574Z,3.70
2017-10-05T06:30:51.849Z,3.60
2017-10-05T06:33:20.105Z,3.17
2017-10-05T06:35:48.373Z,3.23
2017-10-05T06:38:16.621Z,3.53
2017-10-05T06:40:44.869Z,2.90
2017-10-05T06:43:13.101Z,4.33
2017-10-05T06:45:41.351Z,3.10
2017-10-05T06:48:09.577Z,2.63
2017-10-05T06:50:37.824Z,3.00
2017-10-05T06:53:06.074Z,3.80
2017-10-05T06:55:34.344Z,4.57
2017-10-05T06:58:03.360Z,3.97
2017-10-05T07:00:31.616Z,3.07
2017-10-05T07:02:59.844Z,2.77
2017-10-05T07:05:28.094Z,2.77
2017-10-05T07:07:56.325Z,3.23
2017-10-05T07:10:25.873Z,2.60
2017-10-05T07:12:54.864Z,4.03
2017-10-05T07:15:23.096Z,4.40
2017-10-05T07:17:51.340Z,2.80
2017-10-05T07:20:19.573Z,2.57
2017-10-05T07:22:47.825Z,3.00
2017-10-05T07:25:16.836Z,3.50
2017-10-05T07:27:45.081Z,2.93
2017-10-05T07:30:13.312Z,2.97
2017-10-05T07:32:41.569Z,3.10
2017-10-05T07:35:09.801Z,3.13
2017-10-05T07:37:38.041Z,2.60
2017-10-05T07:40:06.275Z,2.87
2017-10-05T07:42:35.304Z,3.20
2017-10-05T07:45:03.540Z,2.70
2017-10-05T07:47:33.111Z,3.37
2017-10-05T07:50:01.381Z,3.17
2017-10-05T07:52:29.612Z,3.80
2017-10-05T07:54:58.688Z,3.30
2017-10-05T07:57:27.704Z,3.30
2017-10-05T07:59:55.933Z,2.90
2017-10-05T08:02:24.181Z,3.37
2017-10-05T08:04:52.410Z,2.67
2017-10-05T08:07:21.429Z,3.23
2017-10-05T08:09:49.668Z,3.27
2017-10-05T08:12:17.916Z,3.00
2017-10-05T08:14:46.148Z,3.00
2017-10-05T08:17:15.172Z,3.87
2017-10-05T08:19:43.397Z,3.20
2017-10-05T08:22:11.631Z,2.93
2017-10-05T08:24:39.874Z,3.13
2017-10-05T08:27:08.100Z,2.83
2017-10-05T08:29:36.504Z,3.00
2017-10-05T08:32:05.501Z,3.10
2017-10-05T08:34:34.508Z,3.77
2017-10-05T08:37:02.738Z,2.70
2017-10-05T08:39:31.129Z,2.80
2017-10-05T08:41:59.341Z,2.57
2017-10-05T08:44:28.349Z,3.00
2017-10-05T08:46:56.572Z,3.03
2017-10-05T08:49:24.818Z,2.60
2017-10-05T08:51:53.052Z,2.73
2017-10-05T08:54:22.052Z,3.97
2017-10-05T08:56:51.046Z,3.73
2017-10-05T08:59:20.051Z,3.00
2017-10-05T09:01:48.277Z,3.60
2017-10-05T09:04:16.528Z,3.03
2017-10-05T09:06:44.755Z,3.03
2017-10-05T09:09:13.763Z,3.03
2017-10-05T09:11:41.993Z,3.33
2017-10-05T09:14:10.233Z,2.83
2017-10-05T09:16:38.468Z,3.03
2017-10-05T09:19:07.501Z,2.27
2017-10-05T09:21:35.727Z,2.20
2017-10-05T09:24:03.988Z,4.73
2017-10-05T09:26:32.220Z,3.30
2017-10-05T09:29:00.458Z,2.60
2017-10-05T09:31:28.693Z,2.20
2017-10-05T09:33:56.917Z,2.40
2017-10-05T09:36:25.923Z,2.10
2017-10-05T09:38:54.154Z,2.27
2017-10-05T09:41:22.399Z,2.37
2017-10-05T09:43:50.626Z,1.97
2017-10-05T09:46:18.869Z,3.33
2017-10-05T09:48:47.093Z,3.23
2017-10-05T09:51:16.105Z,2.03
2017-10-05T09:53:44.337Z,2.73
2017-10-05T09:56:12.569Z,2.43
2017-10-05T09:58:41.560Z,2.07
2017-10-05T10:01:09.812Z,2.97
2017-10-05T10:03:38.809Z,2.70
2017-10-05T10:06:07.050Z,2.33
2017-10-05T10:08:35.282Z,2.80
2017-10-05T10:11:03.537Z,2.43
2017-10-05T10:13:31.766Z,2.50
2017-10-05T10:16:00.017Z,2.60
2017-10-05T10:18:28.244Z,2.30
2017-10-05T10:20:57.252Z,2.70
2017-10-05T10:23:26.249Z,2.13
2017-10-05T10:25:54.496Z,2.27
2017-10-05T10:28:22.729Z,2.40
2017-10-05T10:30:50.975Z,1.73
2017-10-05T10:33:19.969Z,2.67
2017-10-05T10:35:48.229Z,2.90
2017-10-05T10:38:17.225Z,3.00
2017-10-05T10:40:46.237Z,2.13
2017-10-05T10:43:14.503Z,2.00
2017-10-05T10:45:43.508Z,2.20
2017-10-05T10:48:11.756Z,2.50
2017-10-05T10:50:40.754Z,3.63
2017-10-05T10:53:09.767Z,2.33
2017-10-05T10:55:37.993Z,2.00
2017-10-05T10:58:06.320Z,2.00
2017-10-05T11:00:34.548Z,2.27
2017-10-05T11:03:02.792Z,2.60
2017-10-05T11:05:31.021Z,2.37
2017-10-05T11:07:59.257Z,2.00
2017-10-05T11:10:27.488Z,7.53
2017-10-05T11:12:56.503Z,2.70
2017-10-05T11:15:24.736Z,1.77
2017-10-05T11:17:52.975Z,1.80
2017-10-05T11:20:21.210Z,1.83
2017-10-05T11:22:50.226Z,1.50
2017-10-05T11:25:18.453Z,2.20
2017-10-05T11:27:46.809Z,1.73
2017-10-05T11:30:15.051Z,1.83
2017-10-05T11:32:43.302Z,1.67
2017-10-05T11:35:12.312Z,1.63
2017-10-05T11:37:40.556Z,1.53
2017-10-05T11:40:08.784Z,1.90
2017-10-05T11:42:37.033Z,1.40
2017-10-05T11:45:05.276Z,1.90
2017-10-05T11:47:33.531Z,1.63
2017-10-05T11:50:01.777Z,1.83
2017-10-05T11:52:30.022Z,1.80
2017-10-05T11:54:59.048Z,1.50
2017-10-05T11:57:27.287Z,2.00
2017-10-05T11:59:55.542Z,1.93
2017-10-05T12:02:23.772Z,1.83
2017-10-05T12:04:52.029Z,1.80
2017-10-05T12:07:21.028Z,1.50
2017-10-05T12:09:49.271Z,2.10
2017-10-05T12:12:17.493Z,1.60
2017-10-05T12:14:45.749Z,1.40
2017-10-05T12:17:14.740Z,1.87
2017-10-05T12:19:43.764Z,1.77
2017-10-05T12:22:11.993Z,1.80
2017-10-05T12:24:40.236Z,1.87
2017-10-05T12:27:08.543Z,1.23
2017-10-05T12:29:36.762Z,1.53
2017-10-05T12:32:05.001Z,1.30
2017-10-05T12:34:34.564Z,1.70
2017-10-05T12:37:02.812Z,1.43
2017-10-05T12:39:31.063Z,1.80
2017-10-05T12:42:00.063Z,1.90
2017-10-05T12:44:29.073Z,1.67
2017-10-05T12:46:57.304Z,1.37
2017-10-05T12:49:25.561Z,1.77
2017-10-05T12:51:53.774Z,1.60
2017-10-05T12:54:22.791Z,1.63
2017-10-05T12:56:51.019Z,1.80
2017-10-05T12:59:19.276Z,2.57
2017-10-05T13:01:47.507Z,1.67
2017-10-05T13:04:15.765Z,1.80
2017-10-05T13:06:44.041Z,1.60
2017-10-05T13:09:13.184Z,1.63
2017-10-05T13:11:41.433Z,1.20
2017-10-05T13:14:10.497Z,1.10
2017-10-05T13:16:38.725Z,1.10
2017-10-05T13:19:06.956Z,0.90
2017-10-05T13:21:35.199Z,0.87
2017-10-05T13:24:03.608Z,0.90
2017-10-05T13:26:31.870Z,0.73
2017-10-05T13:29:00.208Z,0.90
2017-10-05T13:31:28.633Z,1.40
2017-10-05T13:33:57.001Z,1.60
2017-10-05T13:36:25.260Z,1.83
2017-10-05T13:38:53.477Z,1.70
2017-10-05T13:41:21.730Z,1.67
2017-10-05T13:43:49.949Z,1.90
2017-10-05T13:46:18.192Z,1.70
2017-10-05T13:48:46.421Z,1.83
2017-10-05T13:51:14.655Z,1.80
2017-10-05T13:53:43.852Z,2.23
2017-10-05T13:56:12.106Z,2.13
2017-10-05T13:58:40.352Z,2.00
2017-10-05T14:01:08.617Z,1.80
2017-10-05T14:03:36.851Z,1.33
2017-10-05T14:06:05.089Z,1.50
2017-10-05T14:08:33.309Z,1.40
2017-10-05T14:11:02.345Z,1.40
2017-10-05T14:13:30.562Z,1.20
2017-10-05T14:15:58.789Z,1.80
2017-10-05T14:18:27.032Z,2.40
2017-10-05T14:20:56.040Z,2.20
2017-10-05T14:23:24.286Z,1.67
2017-10-05T14:25:52.505Z,1.70
2017-10-05T14:28:20.744Z,2.33
2017-10-05T14:30:49.741Z,2.40
2017-10-05T14:33:18.768Z,3.27
2017-10-05T14:35:46.993Z,2.70
2017-10-05T14:38:15.255Z,2.80
2017-10-05T14:40:43.559Z,2.70
2017-10-05T14:43:11.788Z,3.07
2017-10-05T14:45:40.031Z,2.70
2017-10-05T14:48:09.025Z,2.70
2017-10-05T14:50:37.254Z,2.43
2017-10-05T14:53:05.493Z,2.30
2017-10-05T14:55:33.717Z,2.30
2017-10-05T14:58:01.952Z,5.20
2017-10-05T15:00:30.273Z,2.93
2017-10-05T15:02:58.490Z,2.57
2017-10-05T15:05:26.712Z,3.93
2017-10-05T15:07:54.964Z,2.70
2017-10-05T15:10:23.193Z,1.93
2017-10-05T15:12:52.199Z,2.47
2017-10-05T15:15:20.420Z,4.90
2017-10-05T15:17:48.681Z,2.10
2017-10-05T15:20:16.921Z,1.80
2017-10-05T15:22:45.918Z,1.70
2017-10-05T15:25:14.161Z,3.30
2017-10-05T15:27:42.403Z,1.97
2017-10-05T15:30:10.640Z,2.60
2017-10-05T15:32:39.637Z,2.60
2017-10-05T15:35:07.906Z,2.40
2017-10-05T15:37:36.121Z,2.10
2017-10-05T15:40:04.356Z,1.70
2017-10-05T15:42:33.345Z,1.67
2017-10-05T15:45:02.374Z,1.90
2017-10-05T15:47:30.609Z,1.77
2017-10-05T15:49:59.616Z,1.80
2017-10-05T15:52:28.632Z,2.17
2017-10-05T15:54:56.870Z,3.17
2017-10-05T15:57:25.864Z,1.43
2017-10-05T15:59:54.878Z,1.37
2017-10-05T16:02:23.121Z,1.00
2017-10-05T16:04:51.360Z,1.53
2017-10-05T16:07:19.621Z,1.50
2017-10-05T16:09:47.869Z,1.17
2017-10-05T16:12:16.872Z,1.00
2017-10-05T16:14:45.108Z,1.50
2017-10-05T16:17:13.331Z,1.10
2017-10-05T16:19:41.577Z,1.33
2017-10-05T16:22:09.798Z,1.63
2017-10-05T16:24:38.049Z,1.43
2017-10-05T16:27:07.041Z,1.60
2017-10-05T16:29:35.305Z,1.33
2017-10-05T16:32:04.297Z,1.10
2017-10-05T16:34:33.292Z,1.23
2017-10-05T16:37:02.308Z,1.20
2017-10-05T16:39:30.528Z,1.30
2017-10-05T16:41:58.770Z,1.73
2017-10-05T16:44:27.000Z,0.90
2017-10-05T16:46:55.253Z,1.53
2017-10-05T16:49:23.480Z,1.53
2017-10-05T16:51:51.728Z,1.20
2017-10-05T16:54:19.954Z,1.10
2017-10-05T16:56:48.191Z,1.53
2017-10-05T16:59:17.184Z,1.60
2017-10-05T17:01:46.270Z,1.47
2017-10-05T17:04:14.499Z,1.40
2017-10-05T17:06:42.751Z,1.20
2017-10-05T17:09:11.010Z,1.50
2017-10-05T17:11:39.228Z,1.20
2017-10-05T17:14:07.458Z,1.17
2017-10-05T17:16:36.465Z,1.20
2017-10-05T17:19:04.696Z,1.40
2017-10-05T17:21:32.939Z,2.10
2017-10-05T17:24:01.172Z,1.67
2017-10-05T17:26:30.185Z,1.80
2017-10-05T17:28:58.413Z,1.30
2017-10-05T17:31:26.682Z,2.37
2017-10-05T17:33:54.908Z,1.80
2017-10-05T17:36:23.920Z,1.40
2017-10-05T17:38:52.195Z,1.80
2017-10-05T17:41:21.317Z,1.70
2017-10-05T17:43:50.400Z,2.10
2017-10-05T17:46:18.680Z,1.37
2017-10-05T17:48:46.993Z,1.83
2017-10-05T17:51:15.235Z,1.70
2017-10-05T17:53:43.520Z,1.30
2017-10-05T17:56:11.789Z,1.40
2017-10-05T17:58:40.016Z,1.45
2017-10-05T18:01:08.256Z,1.50
2017-10-05T18:03:36.541Z,1.43
2017-10-05T18:06:04.772Z,1.47
2017-10-05T18:08:33.061Z,1.90
2017-10-05T18:11:01.444Z,1.70
2017-10-05T18:13:29.733Z,2.30
2017-10-05T18:15:58.084Z,1.67
2017-10-05T18:18:26.377Z,2.03
2017-10-05T18:20:54.641Z,1.93
2017-10-05T18:23:22.919Z,2.17
2017-10-05T18:25:51.173Z,1.63
2017-10-05T18:28:20.204Z,2.00
2017-10-05T18:30:48.460Z,1.50
2017-10-05T18:33:16.760Z,2.00
2017-10-05T18:35:45.137Z,1.80
2017-10-05T18:38:13.412Z,1.50
2017-10-05T18:40:41.782Z,1.40
2017-10-05T18:43:10.049Z,1.40
2017-10-05T18:45:38.344Z,1.30
2017-10-05T18:48:06.621Z,1.80
2017-10-05T18:50:34.902Z,1.63
2017-10-05T18:53:03.180Z,1.77
2017-10-05T18:55:31.449Z,1.43
2017-10-05T18:57:59.731Z,1.53
2017-10-05T19:00:28.011Z,2.07
2017-10-05T19:02:56.276Z,2.10
2017-10-05T19:05:24.557Z,2.43
2017-10-05T19:07:52.830Z,2.70
2017-10-05T19:10:21.094Z,2.73
2017-10-05T19:12:49.353Z,2.40
2017-10-05T19:15:17.608Z,2.50
2017-10-05T19:17:46.606Z,2.43
2017-10-05T19:20:15.623Z,3.73
2017-10-05T19:22:43.865Z,2.47
2017-10-05T19:25:12.890Z,2.77
2017-10-05T19:27:41.125Z,1.77
2017-10-05T19:30:09.373Z,2.33
2017-10-05T19:32:37.615Z,2.00
2017-10-05T19:35:05.888Z,2.60
2017-10-05T19:37:34.132Z,2.47
2017-10-05T19:40:02.434Z,2.30
2017-10-05T19:42:30.704Z,2.50
2017-10-05T19:44:59.719Z,1.90
2017-10-05T19:47:27.954Z,2.00
2017-10-05T19:49:56.208Z,2.93
2017-10-05T19:52:24.455Z,2.60
2017-10-05T19:54:52.713Z,2.30
2017-10-05T19:57:20.949Z,1.90
2017-10-05T19:59:49.193Z,2.03
2017-10-05T20:02:17.432Z,2.57
2017-10-05T20:04:45.694Z,2.00
2017-10-05T20:07:14.689Z,2.03
2017-10-05T20:09:43.707Z,2.70
2017-10-05T20:12:11.962Z,2.10
2017-10-05T20:17:55.351Z,2.40
2017-10-05T20:23:46.059Z,2.60
2017-10-05T20:26:20.817Z,3.90
2017-10-05T20:32:07.410Z,2.97
2017-10-05T20:34:35.643Z,3.97
2017-10-05T20:37:03.952Z,2.80
2017-10-05T20:39:32.195Z,3.17
2017-10-05T20:42:00.470Z,2.60
2017-10-05T20:44:29.476Z,2.90
2017-10-05T20:46:58.510Z,2.63
2017-10-05T20:49:26.795Z,2.90
2017-10-05T20:51:55.066Z,2.80
2017-10-05T20:54:23.308Z,2.30
2017-10-05T20:56:51.605Z,3.07
2017-10-05T20:59:19.929Z,3.57
2017-10-05T21:01:48.268Z,3.20
2017-10-05T21:04:16.611Z,3.67
2017-10-05T21:06:44.875Z,3.70
2017-10-05T21:09:13.278Z,3.10
2017-10-05T21:11:41.502Z,3.00
2017-10-05T21:14:09.775Z,4.90
2017-10-05T21:16:38.092Z,3.50
2017-10-05T21:19:06.355Z,5.03
2017-10-05T21:21:34.656Z,3.40
2017-10-05T21:24:02.944Z,4.40
2017-10-05T21:26:31.190Z,3.73
2017-10-05T21:29:00.538Z,3.83
2017-10-05T21:31:28.795Z,4.50
2017-10-05T21:33:57.067Z,3.57
2017-10-05T21:36:25.328Z,3.87
2017-10-05T21:38:54.408Z,3.87
2017-10-05T21:41:22.755Z,4.13
2017-10-05T21:43:51.018Z,4.40
2017-10-05T21:46:19.271Z,4.60
2017-10-05T21:48:48.307Z,4.10
2017-10-05T21:51:16.559Z,4.13
2017-10-05T21:53:44.833Z,4.70
2017-10-05T21:56:13.871Z,4.73
2017-10-05T21:58:42.141Z,4.40
2017-10-05T22:01:10.428Z,4.43
2017-10-05T22:03:38.692Z,5.77
2017-10-05T22:06:06.998Z,3.90
2017-10-05T22:08:35.276Z,4.03
2017-10-05T22:11:03.522Z,4.23
2017-10-05T22:13:31.844Z,4.20
2017-10-05T22:16:00.115Z,4.77
2017-10-05T22:18:28.400Z,4.27
2017-10-05T22:20:56.680Z,4.83
2017-10-05T22:23:24.929Z,4.80
2017-10-05T22:25:53.216Z,8.17
2017-10-05T22:28:21.525Z,5.83
2017-10-05T22:30:49.800Z,4.73
2017-10-05T22:33:18.087Z,4.13
2017-10-05T22:35:46.355Z,4.17
2017-10-05T22:38:14.599Z,4.83
2017-10-05T22:40:43.619Z,4.30
2017-10-05T22:43:11.928Z,3.73
2017-10-05T22:45:40.198Z,3.57
2017-10-05T22:48:08.531Z,3.33
2017-10-05T22:50:37.589Z,3.50
2017-10-05T22:53:05.840Z,2.90
2017-10-05T22:55:34.151Z,3.40
2017-10-05T22:58:02.428Z,4.00
2017-10-05T23:00:30.709Z,4.10
2017-10-05T23:02:58.991Z,3.57
2017-10-05T23:05:27.253Z,3.17
2017-10-05T23:07:55.499Z,3.17
2017-10-05T23:10:24.550Z,3.50
2017-10-05T23:12:52.795Z,3.50
2017-10-05T23:15:21.844Z,3.10
2017-10-05T23:17:50.107Z,3.37
2017-10-05T23:20:18.379Z,2.90
2017-10-05T23:22:46.629Z,2.90
2017-10-05T23:25:15.657Z,2.90
2017-10-05T23:27:44.593Z,3.80
2017-10-05T23:30:13.658Z,3.73
2017-10-05T23:32:41.919Z,3.87
2017-10-05T23:35:10.244Z,3.53
2017-10-05T23:37:38.499Z,4.67
2017-10-05T23:40:06.793Z,3.27
2017-10-05T23:42:35.062Z,3.37
2017-10-05T23:45:03.311Z,3.00
2017-10-05T23:47:32.454Z,2.93
2017-10-05T23:50:00.693Z,2.77
2017-10-05T23:52:28.965Z,2.77
2017-10-05T23:54:57.977Z,3.07
2017-10-05T23:57:26.283Z,3.63
2017-10-05T23:59:54.527Z,2.63
